createdAt,value
2019-03-20T00:00:50.773Z,7.77
2019-03-20T00:03:18.776Z,7.80
2019-03-20T00:05:46.870Z,8.83
2019-03-20T00:08:15.280Z,8.60
2019-03-20T00:10:43.616Z,8.10
2019-03-20T00:13:13.358Z,8.00
2019-03-20T00:15:41.194Z,8.00
2019-03-20T00:18:08.871Z,8.47
2019-03-20T00:20:36.528Z,8.40
2019-03-20T00:23:04.038Z,8.13
2019-03-20T00:25:33.443Z,8.10
2019-03-20T00:28:01.274Z,8.37
2019-03-20T00:30:29.578Z,8.97
2019-03-20T00:32:57.733Z,8.20
2019-03-20T00:35:25.351Z,8.63
2019-03-20T00:37:52.862Z,8.17
2019-03-20T00:40:20.759Z,9.07
2019-03-20T00:42:49.430Z,8.77
2019-03-20T00:45:17.283Z,7.97
2019-03-20T00:47:45.070Z,7.67
2019-03-20T00:50:14.151Z,8.33
2019-03-20T00:52:42.460Z,8.87
2019-03-20T00:55:10.768Z,8.03
2019-03-20T00:57:38.954Z,7.40
2019-03-20T01:00:11.004Z,8.10
2019-03-20T01:02:38.927Z,8.83
2019-03-20T01:05:12.419Z,8.40
2019-03-20T01:07:36.470Z,8.17
2019-03-20T01:10:06.595Z,8.80
2019-03-20T01:12:34.648Z,8.53
2019-03-20T01:15:02.549Z,8.77
2019-03-20T01:17:30.081Z,8.37
2019-03-20T01:19:58.019Z,8.53
2019-03-20T01:22:27.055Z,7.13
2019-03-20T01:24:55.951Z,7.87
2019-03-20T01:27:23.820Z,7.53
2019-03-20T01:29:52.263Z,8.80
2019-03-20T01:32:20.384Z,8.90
2019-03-20T01:34:48.114Z,8.50
2019-03-20T01:37:16.176Z,7.70
2019-03-20T01:39:49.737Z,7.80
2019-03-20T01:42:18.199Z,7.97
2019-03-20T01:44:46.035Z,8.20
2019-03-20T01:47:14.280Z,8.07
2019-03-20T01:49:41.709Z,6.67
2019-03-20T01:52:09.589Z,8.37
2019-03-20T01:54:37.273Z,8.50
2019-03-20T01:57:04.736Z,7.93
2019-03-20T01:59:32.429Z,8.23
2019-03-20T02:02:00.276Z,9.00
2019-03-20T02:04:27.771Z,8.70
2019-03-20T02:06:55.338Z,7.67
2019-03-20T02:09:23.175Z,8.13
2019-03-20T02:11:51.305Z,8.10
2019-03-20T02:14:19.039Z,8.73
2019-03-20T02:16:47.069Z,8.00
2019-03-20T02:19:14.949Z,6.80
2019-03-20T02:21:42.722Z,8.50
2019-03-20T02:24:10.531Z,8.40
2019-03-20T02:26:38.613Z,8.50
2019-03-20T02:29:06.770Z,7.87
2019-03-20T02:31:34.512Z,7.47
2019-03-20T02:34:01.907Z,6.83
2019-03-20T02:36:29.649Z,7.70
2019-03-20T02:38:57.814Z,7.87
2019-03-20T02:41:26.159Z,8.17
2019-03-20T02:43:53.774Z,7.40
2019-03-20T02:46:21.658Z,7.63
2019-03-20T02:48:49.755Z,8.07
2019-03-20T02:51:17.177Z,7.97
2019-03-20T02:53:44.479Z,8.43
2019-03-20T02:56:12.550Z,7.67
2019-03-20T02:58:41.042Z,8.30
2019-03-20T03:01:09.173Z,7.53
2019-03-20T03:03:37.092Z,8.17
2019-03-20T03:06:07.329Z,8.37
2019-03-20T03:08:34.929Z,8.43
2019-03-20T03:11:02.358Z,6.63
2019-03-20T03:13:30.624Z,8.03
2019-03-20T03:15:58.873Z,7.60
2019-03-20T03:18:26.316Z,8.50
2019-03-20T03:20:54.344Z,7.67
2019-03-20T03:23:22.236Z,8.17
2019-03-20T03:25:51.019Z,7.60
2019-03-20T03:28:18.819Z,6.93
2019-03-20T03:30:46.890Z,7.63
2019-03-20T03:33:14.949Z,7.20
2019-03-20T03:35:42.666Z,7.70
2019-03-20T03:38:10.597Z,7.57
2019-03-20T03:40:38.133Z,7.23
2019-03-20T03:43:05.706Z,7.00
2019-03-20T03:45:33.539Z,7.43
2019-03-20T03:48:01.613Z,7.47
2019-03-20T03:50:29.475Z,6.30
2019-03-20T03:52:57.363Z,7.30
2019-03-20T03:55:26.813Z,7.60
2019-03-20T03:57:54.450Z,6.77
2019-03-20T04:00:22.037Z,7.33
2019-03-20T04:02:50.016Z,7.37
2019-03-20T04:05:17.895Z,8.00
2019-03-20T04:07:46.595Z,8.23
2019-03-20T04:10:14.073Z,7.13
2019-03-20T04:12:41.817Z,7.73
2019-03-20T04:15:10.825Z,7.57
2019-03-20T04:17:39.212Z,7.23
2019-03-20T04:20:09.616Z,7.40
2019-03-20T04:22:37.516Z,7.50
2019-03-20T04:25:05.370Z,7.07
2019-03-20T04:27:33.406Z,7.53
2019-03-20T04:30:01.924Z,7.73
2019-03-20T04:32:29.625Z,7.00
2019-03-20T04:34:56.982Z,7.00
2019-03-20T04:37:24.446Z,6.83
2019-03-20T04:39:51.773Z,7.03
2019-03-20T04:42:19.374Z,6.47
2019-03-20T04:44:47.331Z,7.70
2019-03-20T04:47:15.140Z,7.10
2019-03-20T04:49:42.843Z,7.07
2019-03-20T04:52:10.818Z,7.43
2019-03-20T04:54:38.883Z,8.10
2019-03-20T04:57:08.744Z,7.47
2019-03-20T04:59:36.904Z,8.00
2019-03-20T05:02:05.292Z,7.90
2019-03-20T05:04:33.341Z,7.27
2019-03-20T05:07:01.128Z,7.40
2019-03-20T05:09:29.114Z,7.00
2019-03-20T05:11:56.801Z,7.20
2019-03-20T05:14:24.880Z,8.80
2019-03-20T05:16:52.159Z,8.57
2019-03-20T05:19:20.926Z,8.73
2019-03-20T05:21:59.232Z,8.60
2019-03-20T05:24:27.223Z,8.83
2019-03-20T05:26:55.384Z,7.60
2019-03-20T05:29:25.065Z,7.23
2019-03-20T05:31:52.227Z,8.50
2019-03-20T05:34:20.431Z,7.97
2019-03-20T05:36:48.134Z,8.23
2019-03-20T05:39:16.077Z,7.60
2019-03-20T05:41:43.802Z,8.97
2019-03-20T05:44:11.583Z,7.80
2019-03-20T05:46:40.537Z,8.53
2019-03-20T05:49:07.929Z,8.63
2019-03-20T05:51:35.449Z,8.63
2019-03-20T05:54:03.650Z,8.07
2019-03-20T05:56:32.153Z,13.90
2019-03-20T05:59:01.076Z,7.40
2019-03-20T06:01:28.547Z,8.83
2019-03-20T06:03:58.802Z,8.27
2019-03-20T06:06:27.236Z,7.97
2019-03-20T06:08:55.776Z,8.60
2019-03-20T06:11:23.233Z,8.63
2019-03-20T06:13:51.354Z,9.00
2019-03-20T06:16:18.975Z,7.20
2019-03-20T06:18:47.281Z,7.73
2019-03-20T06:21:15.159Z,7.90
2019-03-20T06:23:42.930Z,7.77
2019-03-20T06:26:10.566Z,8.20
2019-03-20T06:28:37.960Z,9.13
2019-03-20T06:31:05.451Z,6.70
2019-03-20T06:33:33.423Z,11.60
2019-03-20T06:36:01.140Z,12.10
2019-03-20T06:38:28.700Z,11.93
2019-03-20T06:40:57.740Z,12.67
2019-03-20T06:43:25.011Z,12.07
2019-03-20T06:45:52.572Z,13.80
2019-03-20T06:48:20.816Z,13.40
2019-03-20T06:50:48.377Z,12.83
2019-03-20T06:53:16.209Z,11.63
2019-03-20T06:55:44.038Z,11.43
2019-03-20T06:58:11.190Z,10.27
2019-03-20T07:00:51.024Z,10.17
2019-03-20T07:03:35.158Z,12.27
2019-03-20T07:06:34.093Z,12.63
2019-03-20T07:09:23.996Z,11.97
2019-03-20T07:11:52.191Z,14.20
2019-03-20T07:14:19.621Z,16.57
2019-03-20T07:16:47.526Z,18.33
2019-03-20T07:19:15.096Z,18.47
2019-03-20T07:21:42.575Z,20.13
2019-03-20T07:24:09.929Z,20.67
2019-03-20T07:26:37.542Z,20.70
2019-03-20T07:29:04.815Z,17.53
2019-03-20T07:31:32.344Z,17.90
2019-03-20T07:34:00.136Z,17.97
2019-03-20T07:36:28.512Z,21.23
2019-03-20T07:38:56.642Z,18.00
2019-03-20T07:41:24.172Z,14.57
2019-03-20T07:43:51.773Z,12.33
2019-03-20T07:46:20.161Z,9.27
2019-03-20T07:48:50.583Z,8.37
2019-03-20T07:51:17.990Z,6.77
2019-03-20T07:53:45.471Z,8.07
2019-03-20T07:56:13.822Z,6.90
2019-03-20T07:58:43.461Z,7.23
2019-03-20T08:01:10.759Z,6.80
2019-03-20T08:03:38.365Z,7.40
2019-03-20T08:06:05.807Z,7.27
2019-03-20T08:08:33.403Z,6.70
2019-03-20T08:11:00.829Z,7.37
2019-03-20T08:13:28.851Z,6.87
2019-03-20T08:15:56.983Z,5.90
2019-03-20T08:18:25.668Z,5.50
2019-03-20T08:20:53.301Z,5.23
2019-03-20T08:23:20.599Z,5.50
2019-03-20T08:25:48.266Z,5.27
2019-03-20T08:28:18.388Z,5.50
2019-03-20T08:30:46.811Z,5.53
2019-03-20T08:33:14.490Z,5.77
2019-03-20T08:35:42.313Z,5.03
2019-03-20T08:38:18.344Z,5.67
2019-03-20T08:40:40.078Z,5.60
2019-03-20T08:43:07.447Z,5.27
2019-03-20T08:45:34.880Z,5.30
2019-03-20T08:48:03.226Z,5.67
2019-03-20T08:50:32.044Z,5.10
2019-03-20T08:52:59.615Z,5.70
2019-03-20T08:55:27.436Z,4.93
2019-03-20T08:57:54.823Z,5.07
2019-03-20T09:00:22.641Z,5.70
2019-03-20T09:02:50.503Z,5.60
2019-03-20T09:05:21.516Z,5.43
2019-03-20T09:07:49.566Z,5.33
2019-03-20T09:10:18.642Z,6.23
2019-03-20T09:12:46.403Z,5.63
2019-03-20T09:15:15.128Z,6.90
2019-03-20T09:17:42.949Z,5.97
2019-03-20T09:20:12.788Z,8.03
2019-03-20T09:22:40.790Z,6.30
2019-03-20T09:25:11.168Z,5.77
2019-03-20T09:27:38.865Z,5.63
2019-03-20T09:30:13.944Z,5.67
2019-03-20T09:32:42.003Z,6.50
2019-03-20T09:35:09.933Z,5.87
2019-03-20T09:37:37.900Z,5.70
2019-03-20T09:40:07.032Z,4.93
2019-03-20T09:42:34.900Z,5.10
2019-03-20T09:45:03.337Z,5.30
2019-03-20T09:47:30.835Z,5.53
2019-03-20T09:49:58.167Z,5.90
2019-03-20T09:52:25.966Z,5.63
2019-03-20T09:54:55.412Z,6.10
2019-03-20T09:57:23.338Z,5.20
2019-03-20T09:59:50.924Z,6.00
2019-03-20T10:02:18.213Z,5.57
2019-03-20T10:04:45.512Z,6.60
2019-03-20T10:07:13.545Z,5.50
2019-03-20T10:09:41.481Z,5.43
2019-03-20T10:12:08.960Z,5.30
2019-03-20T10:14:36.946Z,5.30
2019-03-20T10:17:04.466Z,4.53
2019-03-20T10:19:32.339Z,5.27
2019-03-20T10:21:59.789Z,5.67
2019-03-20T10:24:27.488Z,5.37
2019-03-20T10:26:55.473Z,5.47
2019-03-20T10:29:22.855Z,5.50
2019-03-20T10:31:50.730Z,5.13
2019-03-20T10:34:18.627Z,5.17
2019-03-20T10:36:46.171Z,4.97
2019-03-20T10:39:14.022Z,5.57
2019-03-20T10:41:42.003Z,5.10
2019-03-20T10:44:09.861Z,4.80
2019-03-20T10:46:37.741Z,4.77
2019-03-20T10:49:06.007Z,4.80
2019-03-20T10:51:33.530Z,3.90
2019-03-20T10:54:00.792Z,5.20
2019-03-20T10:56:28.920Z,4.50
2019-03-20T10:58:56.802Z,6.70
2019-03-20T11:01:24.527Z,4.67
2019-03-20T11:03:52.299Z,4.30
2019-03-20T11:06:19.776Z,4.53
2019-03-20T11:08:47.356Z,4.13
2019-03-20T11:11:26.601Z,3.77
2019-03-20T11:13:45.494Z,4.07
2019-03-20T11:16:12.919Z,3.90
2019-03-20T11:18:41.107Z,4.37
2019-03-20T11:21:08.806Z,3.50
2019-03-20T11:23:36.116Z,4.43
2019-03-20T11:26:03.531Z,3.70
2019-03-20T11:28:31.268Z,3.60
2019-03-20T11:30:59.386Z,4.20
2019-03-20T11:33:27.974Z,4.10
2019-03-20T11:35:57.242Z,4.13
2019-03-20T11:38:26.482Z,3.90
2019-03-20T11:40:54.400Z,4.27
2019-03-20T11:43:21.995Z,3.43
2019-03-20T11:45:49.389Z,3.60
2019-03-20T11:48:21.498Z,3.87
2019-03-20T11:50:49.897Z,3.47
2019-03-20T11:53:17.747Z,3.50
2019-03-20T11:55:45.901Z,3.10
2019-03-20T11:58:14.796Z,3.33
2019-03-20T12:00:42.748Z,3.03
2019-03-20T12:03:10.451Z,3.13
2019-03-20T12:05:38.366Z,3.60
2019-03-20T12:08:06.026Z,3.23
2019-03-20T12:10:33.905Z,3.83
2019-03-20T12:13:01.896Z,3.33
2019-03-20T12:15:29.319Z,3.40
2019-03-20T12:17:57.693Z,3.40
2019-03-20T12:20:25.597Z,3.10
2019-03-20T12:22:53.274Z,3.00
2019-03-20T12:25:24.040Z,2.93
2019-03-20T12:27:51.450Z,3.00
2019-03-20T12:30:22.053Z,3.10
2019-03-20T12:32:49.688Z,3.73
2019-03-20T12:35:17.866Z,3.10
2019-03-20T12:37:45.491Z,3.23
2019-03-20T12:40:25.562Z,3.40
2019-03-20T12:42:53.662Z,3.40
2019-03-20T12:45:24.520Z,2.93
2019-03-20T12:47:52.097Z,2.77
2019-03-20T12:50:19.897Z,4.17
2019-03-20T12:52:50.686Z,3.23
2019-03-20T12:55:18.568Z,3.27
2019-03-20T12:57:46.803Z,3.40
2019-03-20T13:00:17.273Z,2.80
2019-03-20T13:02:44.977Z,2.90
2019-03-20T13:05:13.967Z,2.73
2019-03-20T13:07:41.620Z,3.00
2019-03-20T13:10:12.125Z,2.90
2019-03-20T13:12:39.464Z,2.53
2019-03-20T13:15:10.200Z,2.73
2019-03-20T13:17:38.512Z,2.77
2019-03-20T13:20:07.136Z,2.37
2019-03-20T13:22:34.909Z,2.57
2019-03-20T13:25:03.799Z,3.00
2019-03-20T13:27:33.797Z,2.43
2019-03-20T13:30:01.149Z,2.60
2019-03-20T13:32:28.521Z,2.80
2019-03-20T13:34:56.205Z,3.20
2019-03-20T13:37:24.134Z,3.10
2019-03-20T13:39:51.961Z,2.80
2019-03-20T13:42:19.644Z,3.20
2019-03-20T13:44:47.207Z,3.30
2019-03-20T13:47:15.475Z,2.90
2019-03-20T13:49:43.595Z,2.93
2019-03-20T13:52:11.272Z,2.70
2019-03-20T13:54:38.950Z,2.70
2019-03-20T13:57:06.922Z,3.00
2019-03-20T13:59:34.792Z,2.63
2019-03-20T14:02:02.158Z,2.50
2019-03-20T14:04:29.964Z,2.47
2019-03-20T14:06:57.633Z,2.70
2019-03-20T14:09:25.440Z,2.43
2019-03-20T14:11:52.882Z,2.37
2019-03-20T14:14:20.427Z,2.23
2019-03-20T14:16:48.413Z,2.90
2019-03-20T14:19:15.987Z,3.00
2019-03-20T14:21:44.020Z,2.70
2019-03-20T14:24:11.418Z,2.47
2019-03-20T14:26:39.663Z,2.43
2019-03-20T14:29:07.074Z,2.67
2019-03-20T14:31:34.994Z,2.60
2019-03-20T14:34:02.668Z,3.40
2019-03-20T14:36:31.557Z,2.77
2019-03-20T14:38:59.630Z,2.70
2019-03-20T14:41:27.299Z,2.87
2019-03-20T14:43:54.892Z,2.10
2019-03-20T14:46:22.568Z,2.47
2019-03-20T14:48:50.370Z,3.40
2019-03-20T14:51:18.172Z,3.30
2019-03-20T14:53:45.492Z,2.90
2019-03-20T14:56:12.987Z,3.30
2019-03-20T14:58:40.824Z,2.67
2019-03-20T15:01:08.688Z,3.37
2019-03-20T15:03:37.029Z,3.07
2019-03-20T15:06:04.942Z,3.03
2019-03-20T15:08:32.881Z,2.97
2019-03-20T15:11:00.799Z,3.23
2019-03-20T15:13:35.694Z,3.47
2019-03-20T15:16:09.178Z,3.37
2019-03-20T15:18:37.740Z,3.23
2019-03-20T15:21:05.572Z,3.03
2019-03-20T15:23:36.245Z,3.40
2019-03-20T15:26:04.827Z,3.00
2019-03-20T15:28:32.566Z,2.77
2019-03-20T15:31:00.790Z,3.20
2019-03-20T15:33:28.141Z,3.13
2019-03-20T15:35:55.981Z,3.30
2019-03-20T15:38:23.694Z,3.43
2019-03-20T15:40:56.155Z,3.57
2019-03-20T15:43:21.423Z,3.20
2019-03-20T15:45:49.680Z,3.20
2019-03-20T15:48:17.984Z,3.07
2019-03-20T15:51:04.713Z,3.73
2019-03-20T15:53:49.962Z,3.40
2019-03-20T15:56:28.611Z,3.50
2019-03-20T15:59:17.947Z,3.40
2019-03-20T16:02:07.594Z,3.80
2019-03-20T16:04:53.266Z,3.43
2019-03-20T16:07:34.035Z,2.80
2019-03-20T16:10:21.044Z,3.60
2019-03-20T16:12:51.485Z,3.97
2019-03-20T16:15:19.633Z,3.43
2019-03-20T16:17:47.316Z,3.47
2019-03-20T16:20:15.798Z,3.37
2019-03-20T16:22:43.716Z,3.50
2019-03-20T16:25:12.597Z,3.97
2019-03-20T16:27:40.655Z,3.60
2019-03-20T16:30:12.681Z,3.77
2019-03-20T16:32:40.495Z,3.83
2019-03-20T16:35:08.945Z,3.73
2019-03-20T16:37:36.843Z,3.20
2019-03-20T16:40:07.435Z,3.43
2019-03-20T16:42:35.553Z,3.80
2019-03-20T16:45:04.948Z,3.40
2019-03-20T16:47:33.115Z,3.30
2019-03-20T16:50:00.535Z,2.73
2019-03-20T16:52:28.582Z,3.53
2019-03-20T16:54:56.177Z,2.87
2019-03-20T16:57:24.203Z,3.10
2019-03-20T16:59:52.547Z,3.23
2019-03-20T17:02:20.887Z,3.27
2019-03-20T17:04:48.696Z,3.50
2019-03-20T17:07:16.154Z,3.57
2019-03-20T17:09:44.577Z,3.03
2019-03-20T17:12:12.206Z,3.70
2019-03-20T17:14:41.776Z,3.60
2019-03-20T17:17:09.511Z,3.53
2019-03-20T17:19:37.292Z,3.10
2019-03-20T17:22:05.257Z,3.90
2019-03-20T17:24:33.327Z,5.97
2019-03-20T17:27:01.136Z,6.43
2019-03-20T17:29:29.530Z,6.23
2019-03-20T17:31:57.649Z,6.07
2019-03-20T17:34:24.909Z,7.33
2019-03-20T17:36:52.908Z,6.27
2019-03-20T17:39:20.948Z,6.83
2019-03-20T17:41:48.828Z,6.20
2019-03-20T17:44:16.423Z,5.23
2019-03-20T17:46:44.742Z,5.10
2019-03-20T17:49:12.270Z,3.30
2019-03-20T17:51:39.714Z,4.40
2019-03-20T17:54:07.213Z,4.13
2019-03-20T17:56:35.517Z,5.07
2019-03-20T17:59:03.190Z,4.50
2019-03-20T18:01:30.880Z,4.73
2019-03-20T18:03:58.194Z,2.83
2019-03-20T18:06:25.767Z,4.53
2019-03-20T18:08:54.159Z,5.00
2019-03-20T18:11:21.728Z,5.13
2019-03-20T18:13:49.460Z,6.27
2019-03-20T18:16:17.430Z,5.70
2019-03-20T18:18:44.963Z,5.60
2019-03-20T18:21:12.647Z,6.07
2019-03-20T18:23:40.755Z,7.80
2019-03-20T18:26:08.351Z,8.33
2019-03-20T18:28:35.649Z,7.93
2019-03-20T18:31:03.891Z,6.60
2019-03-20T18:33:31.304Z,4.70
2019-03-20T18:35:59.422Z,5.70
2019-03-20T18:38:26.893Z,4.80
2019-03-20T18:40:54.174Z,4.70
2019-03-20T18:43:21.531Z,4.97
2019-03-20T18:45:49.689Z,5.43
2019-03-20T18:48:17.975Z,5.23
2019-03-20T18:50:45.616Z,5.20
2019-03-20T18:53:13.581Z,4.63
2019-03-20T18:55:41.132Z,4.60
2019-03-20T18:58:08.658Z,3.70
2019-03-20T19:00:37.310Z,5.13
2019-03-20T19:03:05.522Z,5.33
2019-03-20T19:05:44.547Z,5.00
2019-03-20T19:08:13.128Z,6.07
2019-03-20T19:10:40.884Z,8.10
2019-03-20T19:13:08.765Z,7.27
2019-03-20T19:15:36.580Z,7.17
2019-03-20T19:18:04.522Z,8.57
2019-03-20T19:20:32.657Z,7.97
2019-03-20T19:23:00.650Z,6.70
2019-03-20T19:25:28.741Z,7.37
2019-03-20T19:27:56.238Z,6.53
2019-03-20T19:30:24.038Z,6.30
2019-03-20T19:32:52.417Z,7.30
2019-03-20T19:35:20.471Z,6.37
2019-03-20T19:37:48.207Z,7.13
2019-03-20T19:40:16.040Z,6.53
2019-03-20T19:42:43.714Z,5.30
2019-03-20T19:45:12.016Z,6.80
2019-03-20T19:47:40.064Z,7.60
2019-03-20T19:50:10.842Z,7.93
2019-03-20T19:52:38.692Z,8.33
2019-03-20T19:55:06.903Z,9.00
2019-03-20T19:57:35.213Z,10.43
2019-03-20T20:00:03.933Z,11.27
2019-03-20T20:02:32.057Z,9.80
2019-03-20T20:04:59.699Z,8.33
2019-03-20T20:07:27.589Z,7.47
2019-03-20T20:09:57.646Z,7.83
2019-03-20T20:12:31.300Z,8.50
2019-03-20T20:14:54.966Z,7.47
2019-03-20T20:17:22.456Z,8.53
2019-03-20T20:19:50.019Z,8.93
2019-03-20T20:22:18.100Z,7.53
2019-03-20T20:24:46.874Z,5.40
2019-03-20T20:27:14.402Z,6.60
2019-03-20T20:29:42.315Z,5.30
2019-03-20T20:32:10.818Z,6.33
2019-03-20T20:34:38.940Z,6.47
2019-03-20T20:37:07.173Z,7.10
2019-03-20T20:39:35.317Z,10.40
2019-03-20T20:42:03.126Z,9.27
2019-03-20T20:44:31.105Z,9.07
2019-03-20T20:46:58.971Z,9.10
2019-03-20T20:49:26.279Z,8.03
2019-03-20T20:51:54.033Z,9.33
2019-03-20T20:54:22.554Z,9.37
2019-03-20T20:56:49.902Z,8.90
2019-03-20T20:59:17.310Z,10.30
2019-03-20T21:01:45.530Z,10.07
2019-03-20T21:04:13.298Z,10.93
2019-03-20T21:06:41.128Z,10.00
2019-03-20T21:09:08.556Z,10.40
2019-03-20T21:11:36.324Z,8.30
2019-03-20T21:14:03.912Z,9.07
2019-03-20T21:16:32.181Z,8.27
2019-03-20T21:19:35.005Z,8.00
2019-03-20T21:22:59.838Z,7.87
2019-03-20T21:25:28.337Z,7.87
2019-03-20T21:28:58.488Z,8.07
2019-03-20T21:31:49.173Z,8.27
2019-03-20T21:35:35.399Z,7.17
2019-03-20T21:38:09.674Z,9.10
2019-03-20T21:41:35.215Z,7.57
2019-03-20T21:45:18.826Z,7.57
2019-03-20T21:47:53.713Z,7.20
2019-03-20T21:51:08.035Z,7.83
2019-03-20T21:54:40.805Z,9.73
2019-03-20T21:58:08.791Z,10.73
2019-03-20T22:01:51.307Z,9.63
2019-03-20T22:04:20.453Z,9.27
2019-03-20T22:07:08.419Z,8.27
2019-03-20T22:10:33.064Z,8.57
2019-03-20T22:13:59.553Z,8.77
2019-03-20T22:17:50.258Z,8.50
2019-03-20T22:20:53.681Z,8.23
2019-03-20T22:24:23.556Z,8.23
2019-03-20T22:27:34.837Z,8.90
2019-03-20T22:30:05.186Z,8.23
2019-03-20T22:33:45.376Z,8.37
2019-03-20T22:36:25.621Z,9.00
2019-03-20T22:39:59.921Z,7.53
2019-03-20T22:42:53.702Z,8.83
2019-03-20T22:46:32.012Z,10.00
2019-03-20T22:50:00.949Z,8.63
2019-03-20T22:53:33.042Z,9.57
2019-03-20T22:57:01.256Z,9.77
2019-03-20T22:59:30.218Z,8.60
2019-03-20T23:02:13.499Z,8.20
2019-03-20T23:04:49.620Z,9.07
2019-03-20T23:07:22.067Z,9.40
2019-03-20T23:09:50.771Z,9.20
2019-03-20T23:12:19.894Z,9.73
2019-03-20T23:14:48.847Z,9.77
2019-03-20T23:17:18.136Z,6.00
2019-03-20T23:19:48.003Z,8.67
2019-03-20T23:22:19.424Z,8.73
2019-03-20T23:24:48.249Z,9.37
2019-03-20T23:27:27.350Z,8.23
2019-03-20T23:29:55.798Z,8.87
2019-03-20T23:32:24.602Z,9.03
2019-03-20T23:34:54.155Z,8.37
2019-03-20T23:37:23.779Z,7.17
2019-03-20T23:39:52.555Z,8.10
2019-03-20T23:42:23.346Z,8.57
2019-03-20T23:44:52.446Z,8.27
2019-03-20T23:47:42.006Z,8.80
2019-03-20T23:50:11.137Z,8.63
2019-03-20T23:52:39.395Z,8.67
2019-03-20T23:55:09.637Z,9.30
2019-03-20T23:57:37.991Z,9.43
